createdAt,value
2019-04-07T00:00:01.044Z,74.89
2019-04-07T00:02:31.473Z,74.80
2019-04-07T00:05:10.107Z,74.67
2019-04-07T00:07:29.717Z,74.93
2019-04-07T00:09:58.054Z,74.80
2019-04-07T00:12:29.261Z,75.13
2019-04-07T00:14:57.084Z,75.50
2019-04-07T00:17:26.286Z,75.15
2019-04-07T00:19:55.075Z,75.15
2019-04-07T00:22:23.951Z,74.91
2019-04-07T00:24:52.775Z,75.24
2019-04-07T00:27:22.349Z,75.49
2019-04-07T00:29:51.947Z,75.34
2019-04-07T00:32:21.335Z,75.15
2019-04-07T00:34:50.155Z,74.78
2019-04-07T00:37:20.679Z,74.89
2019-04-07T00:39:50.251Z,74.93
2019-04-07T00:42:19.383Z,74.80
2019-04-07T00:44:48.160Z,75.05
2019-04-07T00:47:16.983Z,74.79
2019-04-07T00:49:45.766Z,74.39
2019-04-07T00:52:15.703Z,74.80
2019-04-07T00:54:44.702Z,74.70
2019-04-07T00:57:14.218Z,74.92
2019-04-07T00:59:42.796Z,74.58
2019-04-07T01:02:13.148Z,74.56
2019-04-07T01:04:43.004Z,74.70
2019-04-07T01:07:12.256Z,74.48
2019-04-07T01:09:43.197Z,74.35
2019-04-07T01:12:12.970Z,74.64
2019-04-07T01:14:43.298Z,74.58
2019-04-07T01:17:11.755Z,74.49
2019-04-07T01:19:40.743Z,74.64
2019-04-07T01:22:09.960Z,74.41
2019-04-07T01:24:38.405Z,73.85
2019-04-07T01:27:08.195Z,74.00
2019-04-07T01:29:36.451Z,73.98
2019-04-07T01:32:06.009Z,73.73
2019-04-07T01:34:34.967Z,73.90
2019-04-07T01:37:03.512Z,73.81
2019-04-07T01:39:32.236Z,73.71
2019-04-07T01:42:07.120Z,73.88
2019-04-07T01:44:45.136Z,73.73
2019-04-07T01:47:23.054Z,73.61
2019-04-07T01:49:56.608Z,73.49
2019-04-07T01:52:33.731Z,74.14
2019-04-07T01:55:08.044Z,74.18
2019-04-07T01:58:46.044Z,74.30
2019-04-07T02:01:20.864Z,74.07
2019-04-07T02:03:59.816Z,74.33
2019-04-07T02:06:35.172Z,74.34
2019-04-07T02:09:17.202Z,74.35
2019-04-07T02:12:22.313Z,74.73
2019-04-07T02:15:02.331Z,74.65
2019-04-07T02:17:35.193Z,75.37
2019-04-07T02:20:10.329Z,75.61
2019-04-07T02:22:44.436Z,75.67
2019-04-07T02:25:25.106Z,75.61
2019-04-07T02:28:01.072Z,75.60
2019-04-07T02:32:39.326Z,75.88
2019-04-07T02:35:14.205Z,75.58
2019-04-07T02:37:50.286Z,75.90
2019-04-07T02:40:25.215Z,75.72
2019-04-07T02:43:01.880Z,75.84
2019-04-07T02:45:34.618Z,75.49
2019-04-07T02:48:14.462Z,75.31
2019-04-07T02:50:54.961Z,75.99
2019-04-07T02:53:34.899Z,76.23
2019-04-07T02:56:13.362Z,76.10
2019-04-07T02:58:48.373Z,76.60
2019-04-07T03:01:26.206Z,76.29
2019-04-07T03:05:05.323Z,76.59
2019-04-07T03:07:39.873Z,76.33
2019-04-07T03:10:15.934Z,76.47
2019-04-07T03:12:53.120Z,76.33
2019-04-07T03:15:32.745Z,76.65
2019-04-07T03:18:07.037Z,76.55
2019-04-07T03:20:48.180Z,77.54
2019-04-07T03:23:22.816Z,77.49
2019-04-07T03:25:58.030Z,77.96
2019-04-07T03:28:42.289Z,78.37
2019-04-07T03:31:21.289Z,78.42
2019-04-07T03:33:52.301Z,78.96
2019-04-07T03:36:30.408Z,79.22
2019-04-07T03:39:03.441Z,79.46
2019-04-07T03:41:39.935Z,79.47
2019-04-07T03:44:14.351Z,79.63
2019-04-07T03:46:47.969Z,79.47
2019-04-07T03:49:25.468Z,79.34
2019-04-07T03:52:59.428Z,79.40
2019-04-07T03:55:36.439Z,79.38
2019-04-07T03:58:12.215Z,79.57
2019-04-07T04:00:55.111Z,80.24
2019-04-07T04:03:32.821Z,80.40
2019-04-07T04:06:08.998Z,80.93
2019-04-07T04:09:19.277Z,80.97
2019-04-07T04:11:52.287Z,80.29
2019-04-07T04:14:25.490Z,80.33
2019-04-07T04:16:56.468Z,80.27
2019-04-07T04:19:26.161Z,80.35
2019-04-07T04:21:54.390Z,79.91
2019-04-07T04:24:23.121Z,80.08
2019-04-07T04:26:53.646Z,79.14
2019-04-07T04:29:23.070Z,79.84
2019-04-07T04:31:50.634Z,79.56
2019-04-07T04:34:20.981Z,79.27
2019-04-07T04:36:50.236Z,79.18
2019-04-07T04:39:20.063Z,79.01
2019-04-07T04:41:47.445Z,79.17
2019-04-07T04:44:16.509Z,78.99
2019-04-07T04:46:45.423Z,78.90
2019-04-07T04:49:15.116Z,78.68
2019-04-07T04:51:44.386Z,78.46
2019-04-07T04:54:14.498Z,78.59
2019-04-07T04:56:43.464Z,78.29
2019-04-07T04:59:12.798Z,77.90
2019-04-07T05:01:42.246Z,77.54
2019-04-07T05:04:11.499Z,77.81
2019-04-07T05:06:41.296Z,77.46
2019-04-07T05:09:09.493Z,76.89
2019-04-07T05:11:38.451Z,76.99
2019-04-07T05:14:08.967Z,77.01
2019-04-07T05:16:38.800Z,76.98
2019-04-07T05:19:07.432Z,76.74
2019-04-07T05:21:36.363Z,76.60
2019-04-07T05:24:06.885Z,76.11
2019-04-07T05:26:35.679Z,76.11
2019-04-07T05:29:04.752Z,75.71
2019-04-07T05:31:34.770Z,75.51
2019-04-07T05:34:03.831Z,75.28
2019-04-07T05:36:32.920Z,74.89
2019-04-07T05:39:03.605Z,74.72
2019-04-07T05:41:33.732Z,74.21
2019-04-07T05:44:03.516Z,73.73
2019-04-07T05:46:32.342Z,73.75
2019-04-07T05:49:01.100Z,73.08
2019-04-07T05:51:31.287Z,73.21
2019-04-07T05:54:00.424Z,72.42
2019-04-07T05:56:29.470Z,73.12
2019-04-07T05:58:58.139Z,72.51
2019-04-07T06:01:26.932Z,72.08
2019-04-07T06:03:56.593Z,72.02
2019-04-07T06:06:25.795Z,71.25
2019-04-07T06:08:53.964Z,71.33
2019-04-07T06:11:23.589Z,70.82
2019-04-07T06:13:52.927Z,70.41
2019-04-07T06:16:22.474Z,69.85
2019-04-07T06:18:51.122Z,69.57
2019-04-07T06:21:19.847Z,69.08
2019-04-07T06:23:48.758Z,66.90
2019-04-07T06:26:18.761Z,62.89
2019-04-07T06:28:51.572Z,58.96
2019-04-07T06:31:16.457Z,56.73
2019-04-07T06:33:45.829Z,55.93
2019-04-07T06:36:17.630Z,51.64
2019-04-07T06:38:50.319Z,50.66
2019-04-07T06:41:12.726Z,49.71
2019-04-07T06:43:41.539Z,49.75
2019-04-07T06:46:18.448Z,48.09
2019-04-07T06:48:52.935Z,47.23
2019-04-07T06:51:30.894Z,47.80
2019-04-07T06:54:02.153Z,47.27
2019-04-07T06:56:37.005Z,45.31
2019-04-07T06:59:15.303Z,44.48
2019-04-07T07:01:50.212Z,43.10
2019-04-07T07:05:22.637Z,42.76
2019-04-07T07:07:57.563Z,40.85
2019-04-07T07:10:35.633Z,41.12
2019-04-07T07:13:11.048Z,40.24
2019-04-07T07:15:41.164Z,39.57
2019-04-07T07:19:15.937Z,40.71
2019-04-07T07:22:18.640Z,38.65
2019-04-07T07:24:47.419Z,40.49
2019-04-07T07:27:16.354Z,41.81
2019-04-07T07:29:47.478Z,40.11
2019-04-07T07:32:14.814Z,42.17
2019-04-07T07:34:44.657Z,41.12
2019-04-07T07:37:14.919Z,41.46
2019-04-07T07:39:45.108Z,41.57
2019-04-07T07:42:14.730Z,41.25
2019-04-07T07:44:44.282Z,40.90
2019-04-07T07:47:15.101Z,39.41
2019-04-07T07:49:44.284Z,39.52
2019-04-07T07:52:17.136Z,39.74
2019-04-07T07:54:46.122Z,39.75
2019-04-07T07:57:14.420Z,38.58
2019-04-07T07:59:43.219Z,38.48
2019-04-07T08:02:11.888Z,38.14
2019-04-07T08:04:40.431Z,36.66
2019-04-07T08:07:13.423Z,36.37
2019-04-07T08:09:39.436Z,38.34
2019-04-07T08:12:10.307Z,37.45
2019-04-07T08:14:38.748Z,39.04
2019-04-07T08:17:09.399Z,41.11
2019-04-07T08:19:40.683Z,42.17
2019-04-07T08:22:07.698Z,43.78
2019-04-07T08:24:37.258Z,44.55
2019-04-07T08:27:08.804Z,45.43
2019-04-07T08:29:37.506Z,46.36
2019-04-07T08:32:06.590Z,47.67
2019-04-07T08:34:34.923Z,48.04
2019-04-07T08:37:05.950Z,48.86
2019-04-07T08:39:35.431Z,48.90
2019-04-07T08:42:07.678Z,48.65
2019-04-07T08:44:32.003Z,49.10
2019-04-07T08:47:01.371Z,49.07
2019-04-07T08:49:32.355Z,48.97
2019-04-07T08:52:03.224Z,49.00
2019-04-07T08:54:28.653Z,49.42
2019-04-07T08:56:58.281Z,49.08
2019-04-07T08:59:27.040Z,49.67
2019-04-07T09:01:55.845Z,49.09
2019-04-07T09:04:25.216Z,48.94
2019-04-07T09:06:53.761Z,49.00
2019-04-07T09:09:32.568Z,49.04
2019-04-07T09:11:54.985Z,49.32
2019-04-07T09:14:20.286Z,50.42
2019-04-07T09:16:56.203Z,50.49
2019-04-07T09:19:45.746Z,49.63
2019-04-07T09:22:22.949Z,49.24
2019-04-07T09:25:52.924Z,49.60
2019-04-07T09:28:31.856Z,50.28
2019-04-07T09:31:11.965Z,49.83
2019-04-07T09:34:20.638Z,49.42
2019-04-07T09:36:56.365Z,49.21
2019-04-07T09:39:34.538Z,49.40
2019-04-07T09:42:35.993Z,49.12
2019-04-07T09:45:26.503Z,49.03
2019-04-07T09:48:04.353Z,48.71
2019-04-07T09:50:38.639Z,47.62
2019-04-07T09:53:17.962Z,49.03
2019-04-07T09:56:23.966Z,48.44
2019-04-07T09:59:55.660Z,45.55
2019-04-07T10:02:34.146Z,46.13
2019-04-07T10:05:02.768Z,46.33
2019-04-07T10:07:41.684Z,46.70
2019-04-07T10:10:14.772Z,45.13
2019-04-07T10:12:51.137Z,44.67
2019-04-07T10:17:28.919Z,45.51
2019-04-07T10:20:04.349Z,44.61
2019-04-07T10:23:40.275Z,44.62
2019-04-07T10:26:16.694Z,44.66
2019-04-07T10:28:51.672Z,44.61
2019-04-07T10:31:23.577Z,43.06
2019-04-07T10:33:58.349Z,43.44
2019-04-07T10:36:37.421Z,42.45
2019-04-07T10:39:15.659Z,43.80
2019-04-07T10:43:58.979Z,40.85
2019-04-07T10:46:34.137Z,39.89
2019-04-07T10:49:11.371Z,38.77
2019-04-07T10:51:51.295Z,38.90
2019-04-07T10:54:25.203Z,39.63
2019-04-07T10:56:59.845Z,39.10
2019-04-07T10:59:36.825Z,36.69
2019-04-07T11:04:12.790Z,34.38
2019-04-07T11:08:51.900Z,37.16
2019-04-07T11:11:24.585Z,36.47
2019-04-07T11:13:58.807Z,36.75
2019-04-07T11:16:36.523Z,34.58
2019-04-07T11:21:14.350Z,35.52
2019-04-07T11:23:49.037Z,34.79
2019-04-07T11:26:23.527Z,34.58
2019-04-07T11:28:57.295Z,34.88
2019-04-07T11:31:35.203Z,33.23
2019-04-07T11:34:08.794Z,33.43
2019-04-07T11:36:44.398Z,34.88
2019-04-07T11:39:18.899Z,34.03
2019-04-07T11:41:52.827Z,33.37
2019-04-07T11:44:28.009Z,33.76
2019-04-07T11:47:02.218Z,33.47
2019-04-07T11:49:35.832Z,33.85
2019-04-07T11:52:21.047Z,35.07
2019-04-07T11:54:55.396Z,32.84
2019-04-07T11:57:45.216Z,34.86
2019-04-07T12:00:18.392Z,33.21
2019-04-07T12:02:53.612Z,33.81
2019-04-07T12:05:28.733Z,34.41
2019-04-07T12:09:06.530Z,33.62
2019-04-07T12:11:54.416Z,33.14
2019-04-07T12:14:28.788Z,33.30
2019-04-07T12:17:06.943Z,33.54
2019-04-07T12:19:39.830Z,32.92
2019-04-07T12:23:16.020Z,32.90
2019-04-07T12:25:51.439Z,32.48
2019-04-07T12:28:25.749Z,32.22
2019-04-07T12:31:03.500Z,34.10
2019-04-07T12:33:40.350Z,32.63
2019-04-07T12:36:14.597Z,33.80
2019-04-07T12:38:52.246Z,32.00
2019-04-07T12:41:31.793Z,32.15
2019-04-07T12:44:04.394Z,32.62
2019-04-07T12:46:44.267Z,33.32
2019-04-07T12:49:17.246Z,33.36
2019-04-07T12:51:55.970Z,33.70
2019-04-07T12:54:28.765Z,32.68
2019-04-07T12:59:06.885Z,32.53
2019-04-07T13:01:44.895Z,33.19
2019-04-07T13:04:15.533Z,33.61
2019-04-07T13:06:49.077Z,33.81
2019-04-07T13:09:24.593Z,32.99
2019-04-07T13:11:55.920Z,32.79
2019-04-07T13:14:40.026Z,33.21
2019-04-07T13:17:11.668Z,33.82
2019-04-07T13:19:58.395Z,33.03
2019-04-07T13:22:32.540Z,32.54
2019-04-07T13:25:04.731Z,32.75
2019-04-07T13:27:43.060Z,32.68
2019-04-07T13:30:24.150Z,32.84
2019-04-07T13:33:01.936Z,32.55
2019-04-07T13:35:35.679Z,33.92
2019-04-07T13:38:35.960Z,34.08
2019-04-07T13:41:10.457Z,33.59
2019-04-07T13:43:44.847Z,33.30
2019-04-07T13:46:30.647Z,33.31
2019-04-07T13:49:00.123Z,34.15
2019-04-07T13:51:32.960Z,34.30
2019-04-07T13:54:06.971Z,34.78
2019-04-07T13:56:48.135Z,34.03
2019-04-07T13:59:33.646Z,34.14
2019-04-07T14:02:06.383Z,33.91
2019-04-07T14:04:39.606Z,35.02
2019-04-07T14:09:20.168Z,34.17
2019-04-07T14:12:05.083Z,34.77
2019-04-07T14:14:26.788Z,33.92
2019-04-07T14:17:01.782Z,35.18
2019-04-07T14:19:38.681Z,35.05
2019-04-07T14:22:13.444Z,34.25
2019-04-07T14:24:47.211Z,35.27
2019-04-07T14:27:31.159Z,34.30
2019-04-07T14:30:06.220Z,34.95
2019-04-07T14:32:39.777Z,34.09
2019-04-07T14:35:29.386Z,34.20
2019-04-07T14:38:13.550Z,35.08
2019-04-07T14:40:48.846Z,35.03
2019-04-07T14:43:22.265Z,35.27
2019-04-07T14:45:55.235Z,35.18
2019-04-07T14:50:32.137Z,35.91
2019-04-07T14:57:25.518Z,33.93
2019-04-07T15:00:00.000Z,33.34
2019-04-07T15:02:29.096Z,33.54
2019-04-07T15:05:01.834Z,34.32
2019-04-07T15:07:40.855Z,33.05
2019-04-07T15:10:20.242Z,33.44
2019-04-07T15:12:52.414Z,32.94
2019-04-07T15:15:21.214Z,33.18
2019-04-07T15:17:49.631Z,33.32
2019-04-07T15:20:19.651Z,32.85
2019-04-07T15:22:49.375Z,32.78
2019-04-07T15:25:18.409Z,33.30
2019-04-07T15:27:47.719Z,33.19
2019-04-07T15:30:18.105Z,32.13
2019-04-07T15:32:50.370Z,33.23
2019-04-07T15:35:18.473Z,33.07
2019-04-07T15:37:51.556Z,33.51
2019-04-07T15:40:18.119Z,33.78
2019-04-07T15:42:50.602Z,34.01
2019-04-07T15:45:16.814Z,34.18
2019-04-07T15:47:47.163Z,33.03
2019-04-07T15:50:14.800Z,32.95
2019-04-07T15:52:45.943Z,34.06
2019-04-07T15:55:13.483Z,34.53
2019-04-07T15:57:42.786Z,34.69
2019-04-07T16:00:11.232Z,35.42
2019-04-07T16:02:42.129Z,35.58
2019-04-07T16:05:18.156Z,36.30
2019-04-07T16:07:46.962Z,36.70
2019-04-07T16:10:18.675Z,37.02
2019-04-07T16:12:52.239Z,37.63
2019-04-07T16:15:19.460Z,38.56
2019-04-07T16:17:48.047Z,38.10
2019-04-07T16:20:22.934Z,36.98
2019-04-07T16:22:49.932Z,37.38
2019-04-07T16:25:16.454Z,37.57
2019-04-07T16:27:45.749Z,38.31
2019-04-07T16:30:16.383Z,37.97
2019-04-07T16:32:45.585Z,38.25
2019-04-07T16:35:16.361Z,38.23
2019-04-07T16:37:43.788Z,38.39
2019-04-07T16:40:13.056Z,38.38
2019-04-07T16:42:54.542Z,38.60
2019-04-07T16:45:18.027Z,37.72
2019-04-07T16:47:47.727Z,37.37
2019-04-07T16:50:18.520Z,37.70
2019-04-07T16:52:44.791Z,37.97
2019-04-07T16:55:48.871Z,37.19
2019-04-07T16:58:14.662Z,38.08
2019-04-07T17:00:43.476Z,38.11
2019-04-07T17:03:13.616Z,38.22
2019-04-07T17:05:43.060Z,38.00
2019-04-07T17:08:12.883Z,38.33
2019-04-07T17:10:41.447Z,38.29
2019-04-07T17:13:19.631Z,39.28
2019-04-07T17:15:41.573Z,38.23
2019-04-07T17:18:10.498Z,38.93
2019-04-07T17:20:44.337Z,39.05
2019-04-07T17:23:13.347Z,39.42
2019-04-07T17:25:41.733Z,38.38
2019-04-07T17:28:13.561Z,39.25
2019-04-07T17:30:40.156Z,38.88
2019-04-07T17:33:10.128Z,39.65
2019-04-07T17:35:39.051Z,39.39
2019-04-07T17:38:10.683Z,39.67
2019-04-07T17:40:43.690Z,39.98
2019-04-07T17:43:25.657Z,39.62
2019-04-07T17:45:54.632Z,39.43
2019-04-07T17:48:36.978Z,39.58
2019-04-07T17:51:04.570Z,40.18
2019-04-07T17:53:37.246Z,40.22
2019-04-07T17:56:20.112Z,40.64
2019-04-07T17:58:54.362Z,40.36
2019-04-07T18:01:30.381Z,40.27
2019-04-07T18:04:13.969Z,41.28
2019-04-07T18:06:46.029Z,40.83
2019-04-07T18:09:35.100Z,41.26
2019-04-07T18:12:13.900Z,41.79
2019-04-07T18:14:42.678Z,41.41
2019-04-07T18:17:20.339Z,41.73
2019-04-07T18:19:54.744Z,41.17
2019-04-07T18:22:29.852Z,41.80
2019-04-07T18:25:04.105Z,42.38
2019-04-07T18:27:36.275Z,42.31
2019-04-07T18:30:10.584Z,41.98
2019-04-07T18:32:49.280Z,42.63
2019-04-07T18:35:28.436Z,42.10
2019-04-07T18:38:00.331Z,42.26
2019-04-07T18:40:52.731Z,42.61
2019-04-07T18:44:26.162Z,42.62
2019-04-07T18:47:01.450Z,42.50
2019-04-07T18:49:34.081Z,42.67
2019-04-07T18:52:08.273Z,43.40
2019-04-07T18:55:18.083Z,43.52
2019-04-07T18:57:53.410Z,43.30
2019-04-07T19:01:04.298Z,43.19
2019-04-07T19:05:38.094Z,42.84
2019-04-07T19:08:17.847Z,43.40
2019-04-07T19:10:51.578Z,43.78
2019-04-07T19:13:39.272Z,43.36
2019-04-07T19:16:19.090Z,43.71
2019-04-07T19:20:52.557Z,43.68
2019-04-07T19:23:28.581Z,43.48
2019-04-07T19:26:06.280Z,44.04
2019-04-07T19:28:42.262Z,44.04
2019-04-07T19:31:18.267Z,44.17
2019-04-07T19:33:50.470Z,44.09
2019-04-07T19:36:22.942Z,44.17
2019-04-07T19:38:58.547Z,44.46
2019-04-07T19:41:33.877Z,44.43
2019-04-07T19:44:13.729Z,43.86
2019-04-07T19:46:48.178Z,44.05
2019-04-07T19:49:54.358Z,44.55
2019-04-07T19:52:26.954Z,44.79
2019-04-07T19:55:00.452Z,44.65
2019-04-07T19:59:41.658Z,44.42
2019-04-07T20:02:12.892Z,44.83
2019-04-07T20:04:50.152Z,45.65
2019-04-07T20:07:51.330Z,45.15
2019-04-07T20:10:26.997Z,46.02
2019-04-07T20:14:03.608Z,45.13
2019-04-07T20:16:38.423Z,45.63
2019-04-07T20:19:13.181Z,46.06
2019-04-07T20:21:53.679Z,45.85
2019-04-07T20:24:23.872Z,46.14
2019-04-07T20:27:03.073Z,46.22
2019-04-07T20:29:46.543Z,46.26
2019-04-07T20:32:35.247Z,46.62
2019-04-07T20:35:11.511Z,46.10
2019-04-07T20:37:47.107Z,47.01
2019-04-07T20:40:18.094Z,46.32
2019-04-07T20:42:53.273Z,46.62
2019-04-07T20:45:31.925Z,46.82
2019-04-07T20:48:05.111Z,47.38
2019-04-07T20:50:43.638Z,46.90
2019-04-07T20:53:22.188Z,46.91
2019-04-07T20:55:50.740Z,47.37
2019-04-07T20:58:41.604Z,47.65
2019-04-07T21:01:04.514Z,46.92
2019-04-07T21:03:51.949Z,47.78
2019-04-07T21:06:59.871Z,47.61
2019-04-07T21:10:08.267Z,47.03
2019-04-07T21:12:37.882Z,47.59
2019-04-07T21:15:30.039Z,47.65
2019-04-07T21:18:05.347Z,47.44
2019-04-07T21:20:45.335Z,47.45
2019-04-07T21:23:19.520Z,47.69
2019-04-07T21:26:51.876Z,48.00
2019-04-07T21:29:25.958Z,47.63
2019-04-07T21:32:02.388Z,48.11
2019-04-07T21:34:36.494Z,48.20
2019-04-07T21:37:14.794Z,47.68
2019-04-07T21:39:51.632Z,47.55
2019-04-07T21:42:36.061Z,48.48
2019-04-07T21:45:14.788Z,48.02
2019-04-07T21:47:51.004Z,48.09
2019-04-07T21:50:26.062Z,47.91
2019-04-07T21:53:03.115Z,48.43
2019-04-07T21:55:46.040Z,48.04
2019-04-07T21:58:26.296Z,47.64
2019-04-07T22:00:58.462Z,47.94
2019-04-07T22:03:39.548Z,47.90
2019-04-07T22:06:14.468Z,48.14
2019-04-07T22:08:47.173Z,48.01
2019-04-07T22:11:15.599Z,48.47
2019-04-07T22:13:44.895Z,48.18
2019-04-07T22:16:14.273Z,48.86
2019-04-07T22:18:43.061Z,48.77
2019-04-07T22:21:11.761Z,49.74
2019-04-07T22:23:40.693Z,50.05
2019-04-07T22:26:16.209Z,49.86
2019-04-07T22:28:39.437Z,50.06
2019-04-07T22:31:08.900Z,50.12
2019-04-07T22:33:36.853Z,50.49
2019-04-07T22:36:05.900Z,50.39
2019-04-07T22:38:34.280Z,50.47
2019-04-07T22:41:06.966Z,50.98
2019-04-07T22:43:32.040Z,50.92
2019-04-07T22:46:08.544Z,51.27
2019-04-07T22:48:29.756Z,50.85
2019-04-07T22:50:58.826Z,51.32
2019-04-07T22:53:29.856Z,51.31
2019-04-07T22:55:56.997Z,50.99
2019-04-07T22:58:27.714Z,51.46
2019-04-07T23:00:55.482Z,51.66
2019-04-07T23:03:24.296Z,51.05
2019-04-07T23:05:53.375Z,51.33
2019-04-07T23:08:22.418Z,52.01
2019-04-07T23:10:52.072Z,51.73
2019-04-07T23:13:21.678Z,52.07
2019-04-07T23:15:50.336Z,52.31
2019-04-07T23:18:18.479Z,52.76
2019-04-07T23:20:47.934Z,53.36
2019-04-07T23:23:16.446Z,53.38
2019-04-07T23:25:46.690Z,53.58
2019-04-07T23:28:16.645Z,52.99
2019-04-07T23:30:45.088Z,53.27
2019-04-07T23:33:14.660Z,52.88
2019-04-07T23:35:42.898Z,53.10
2019-04-07T23:38:13.359Z,53.80
2019-04-07T23:40:41.962Z,53.51
2019-04-07T23:43:11.160Z,53.61
2019-04-07T23:45:39.929Z,54.16
2019-04-07T23:48:08.483Z,53.79
2019-04-07T23:50:37.407Z,54.19
2019-04-07T23:53:17.567Z,54.33
2019-04-07T23:55:46.431Z,53.91
2019-04-07T23:58:15.308Z,53.92
